createdAt,value
2019-03-31T00:01:08.013Z,12.30
2019-03-31T00:03:30.294Z,12.20
2019-03-31T00:05:58.719Z,12.20
2019-03-31T00:08:27.153Z,12.10
2019-03-31T00:10:55.571Z,12.00
2019-03-31T00:13:23.991Z,12.00
2019-03-31T00:15:52.422Z,11.90
2019-03-31T00:18:20.853Z,11.90
2019-03-31T00:20:49.295Z,11.80
2019-03-31T00:23:17.723Z,11.80
2019-03-31T00:25:51.145Z,11.70
2019-03-31T00:28:20.226Z,11.70
2019-03-31T00:30:48.681Z,11.70
2019-03-31T00:33:17.123Z,11.70
2019-03-31T00:35:45.543Z,11.60
2019-03-31T00:38:14.015Z,11.70
2019-03-31T00:40:42.728Z,11.70
2019-03-31T00:43:11.148Z,11.70
2019-03-31T00:45:39.650Z,11.70
2019-03-31T00:48:08.094Z,11.70
2019-03-31T00:50:36.525Z,11.70
2019-03-31T00:53:04.947Z,11.60
2019-03-31T00:55:33.393Z,11.60
2019-03-31T00:58:01.805Z,11.60
2019-03-31T01:00:38.745Z,11.60
2019-03-31T01:03:07.401Z,11.60
2019-03-31T01:05:38.745Z,11.60
2019-03-31T01:08:07.685Z,11.60
2019-03-31T01:10:36.127Z,11.60
2019-03-31T01:13:05.891Z,11.60
2019-03-31T01:15:35.350Z,11.60
2019-03-31T01:18:04.418Z,11.60
2019-03-31T01:20:32.993Z,11.60
2019-03-31T01:23:01.422Z,11.50
2019-03-31T01:25:29.838Z,11.50
2019-03-31T01:27:58.259Z,11.40
2019-03-31T01:30:26.765Z,11.40
2019-03-31T01:32:56.494Z,11.30
2019-03-31T01:35:24.996Z,11.20
2019-03-31T01:37:53.407Z,11.10
2019-03-31T01:40:21.874Z,11.10
2019-03-31T01:42:50.327Z,11.00
2019-03-31T01:45:18.807Z,10.90
2019-03-31T01:47:47.243Z,10.80
2019-03-31T01:50:15.735Z,10.80
2019-03-31T01:52:44.339Z,10.70
2019-03-31T01:55:12.834Z,10.60
2019-03-31T01:57:41.258Z,10.60
2019-03-31T02:00:12.050Z,10.50
2019-03-31T02:02:40.498Z,10.50
2019-03-31T02:05:08.991Z,10.40
2019-03-31T02:07:37.617Z,10.40
2019-03-31T02:10:07.065Z,10.30
2019-03-31T02:12:35.483Z,10.30
2019-03-31T02:15:06.016Z,10.30
2019-03-31T02:17:34.440Z,10.20
2019-03-31T02:20:03.126Z,10.20
2019-03-31T02:22:31.545Z,10.20
2019-03-31T02:24:59.982Z,10.20
2019-03-31T02:27:28.403Z,10.20
2019-03-31T02:29:56.834Z,10.20
2019-03-31T02:32:25.304Z,10.20
2019-03-31T02:34:53.819Z,10.20
2019-03-31T02:37:22.254Z,10.20
2019-03-31T02:39:50.691Z,10.30
2019-03-31T02:42:19.107Z,10.30
2019-03-31T02:44:47.555Z,10.30
2019-03-31T02:47:15.969Z,10.30
2019-03-31T02:49:44.383Z,10.30
2019-03-31T02:52:13.147Z,10.30
2019-03-31T02:54:42.006Z,10.30
2019-03-31T02:57:10.779Z,10.30
2019-03-31T02:59:41.239Z,10.30
2019-03-31T03:02:10.726Z,10.30
2019-03-31T03:04:41.100Z,10.30
2019-03-31T03:07:12.624Z,10.30
2019-03-31T03:09:43.967Z,10.20
2019-03-31T03:12:13.303Z,10.20
2019-03-31T03:14:43.273Z,10.10
2019-03-31T03:17:11.678Z,10.10
2019-03-31T03:19:40.109Z,10.00
2019-03-31T03:22:08.559Z,10.00
2019-03-31T03:24:36.988Z,10.00
2019-03-31T03:27:05.404Z,10.00
2019-03-31T03:29:33.830Z,10.00
2019-03-31T03:32:02.245Z,9.90
2019-03-31T03:34:30.718Z,10.00
2019-03-31T03:36:59.167Z,9.90
2019-03-31T03:39:27.597Z,9.90
2019-03-31T03:41:56.021Z,9.90
2019-03-31T03:44:24.421Z,9.90
2019-03-31T03:46:52.847Z,9.90
2019-03-31T03:49:21.259Z,9.90
2019-03-31T03:51:49.793Z,9.90
2019-03-31T03:54:18.202Z,9.80
2019-03-31T03:56:46.622Z,9.80
2019-03-31T03:59:15.038Z,9.80
2019-03-31T04:01:43.471Z,9.80
2019-03-31T04:04:11.877Z,9.90
2019-03-31T04:06:40.290Z,9.80
2019-03-31T04:09:08.710Z,9.80
2019-03-31T04:11:37.133Z,9.80
2019-03-31T04:14:05.623Z,9.70
2019-03-31T04:16:34.176Z,9.70
2019-03-31T04:19:02.746Z,9.70
2019-03-31T04:21:31.239Z,9.70
2019-03-31T04:23:59.726Z,9.70
2019-03-31T04:26:28.152Z,9.70
2019-03-31T04:28:56.568Z,9.60
2019-03-31T04:31:25.007Z,9.60
2019-03-31T04:33:53.440Z,9.60
2019-03-31T04:36:21.903Z,9.60
2019-03-31T04:38:50.346Z,9.50
2019-03-31T04:41:18.903Z,9.50
2019-03-31T04:43:47.336Z,9.50
2019-03-31T04:46:15.757Z,9.40
2019-03-31T04:48:44.329Z,9.40
2019-03-31T04:51:12.750Z,9.30
2019-03-31T04:53:41.153Z,9.40
2019-03-31T04:56:09.599Z,9.50
2019-03-31T04:58:38.025Z,9.50
2019-03-31T05:01:06.446Z,9.50
2019-03-31T05:03:34.863Z,9.50
2019-03-31T05:06:03.284Z,9.60
2019-03-31T05:08:31.699Z,9.60
2019-03-31T05:11:00.111Z,9.60
2019-03-31T05:13:28.562Z,9.60
2019-03-31T05:15:56.983Z,9.60
2019-03-31T05:18:25.386Z,9.60
2019-03-31T05:20:53.807Z,9.60
2019-03-31T05:23:22.217Z,9.60
2019-03-31T05:25:50.643Z,9.50
2019-03-31T05:28:19.054Z,9.60
2019-03-31T05:30:47.481Z,9.60
2019-03-31T05:33:15.910Z,9.60
2019-03-31T05:35:44.327Z,9.60
2019-03-31T05:38:12.736Z,9.60
2019-03-31T05:40:41.158Z,9.60
2019-03-31T05:43:09.566Z,9.60
2019-03-31T05:45:38.063Z,9.60
2019-03-31T05:48:06.479Z,9.70
2019-03-31T05:50:35.214Z,9.70
2019-03-31T05:53:03.623Z,9.70
2019-03-31T05:55:32.047Z,9.70
2019-03-31T05:58:00.466Z,9.70
2019-03-31T06:00:35.442Z,9.80
2019-03-31T06:03:03.863Z,9.80
2019-03-31T06:05:32.271Z,9.80
2019-03-31T06:08:00.712Z,9.90
2019-03-31T06:10:29.324Z,9.90
2019-03-31T06:12:57.733Z,9.90
2019-03-31T06:15:26.168Z,9.90
2019-03-31T06:17:54.582Z,9.90
2019-03-31T06:20:23.004Z,9.90
2019-03-31T06:22:51.410Z,9.90
2019-03-31T06:25:19.835Z,9.90
2019-03-31T06:27:48.290Z,9.90
2019-03-31T06:30:17.715Z,9.90
2019-03-31T06:32:46.134Z,10.00
2019-03-31T06:35:14.565Z,10.00
2019-03-31T06:37:42.982Z,10.00
2019-03-31T06:40:11.410Z,10.10
2019-03-31T06:42:39.837Z,10.20
2019-03-31T06:45:08.523Z,10.20
2019-03-31T06:47:37.010Z,10.20
2019-03-31T06:50:07.455Z,10.20
2019-03-31T06:52:35.880Z,10.20
2019-03-31T06:55:07.130Z,10.30
2019-03-31T06:57:35.553Z,10.30
2019-03-31T07:00:08.269Z,10.30
2019-03-31T07:02:36.693Z,10.30
2019-03-31T07:05:07.160Z,10.40
2019-03-31T07:07:35.568Z,10.40
2019-03-31T07:10:06.241Z,10.50
2019-03-31T07:12:34.685Z,10.50
2019-03-31T07:15:04.172Z,10.60
2019-03-31T07:17:32.584Z,10.70
2019-03-31T07:20:01.009Z,10.80
2019-03-31T07:22:29.423Z,10.80
2019-03-31T07:24:58.741Z,10.80
2019-03-31T07:27:27.154Z,10.80
2019-03-31T07:29:55.574Z,10.80
2019-03-31T07:32:24.011Z,10.90
2019-03-31T07:34:52.426Z,11.00
2019-03-31T07:37:20.845Z,11.10
2019-03-31T07:39:49.350Z,11.10
2019-03-31T07:42:18.095Z,11.10
2019-03-31T07:44:46.584Z,11.10
2019-03-31T07:47:15.367Z,11.20
2019-03-31T07:49:43.776Z,11.20
2019-03-31T07:52:12.202Z,11.30
2019-03-31T07:54:40.606Z,11.40
2019-03-31T07:57:09.038Z,11.50
2019-03-31T07:59:37.526Z,11.70
2019-03-31T08:02:05.953Z,11.80
2019-03-31T08:04:34.375Z,11.90
2019-03-31T08:07:02.804Z,12.00
2019-03-31T08:09:31.215Z,12.20
2019-03-31T08:11:59.652Z,12.30
2019-03-31T08:14:28.061Z,12.40
2019-03-31T08:16:56.570Z,12.50
2019-03-31T08:19:25.004Z,12.60
2019-03-31T08:21:53.497Z,12.60
2019-03-31T08:24:21.918Z,12.60
2019-03-31T08:26:50.335Z,12.60
2019-03-31T08:29:18.766Z,12.70
2019-03-31T08:31:47.227Z,12.70
2019-03-31T08:34:15.634Z,12.60
2019-03-31T08:36:44.067Z,12.60
2019-03-31T08:39:12.480Z,12.60
2019-03-31T08:41:40.907Z,12.60
2019-03-31T08:44:09.343Z,12.70
2019-03-31T08:46:37.774Z,12.60
2019-03-31T08:49:06.255Z,12.50
2019-03-31T08:51:34.678Z,12.40
2019-03-31T08:54:03.099Z,12.40
2019-03-31T08:56:31.514Z,12.40
2019-03-31T08:59:00.227Z,12.30
2019-03-31T09:01:28.634Z,12.20
2019-03-31T09:03:57.072Z,12.20
2019-03-31T09:06:25.487Z,12.30
2019-03-31T09:08:53.926Z,12.40
2019-03-31T09:11:22.335Z,12.60
2019-03-31T09:13:50.750Z,12.80
2019-03-31T09:16:19.179Z,12.90
2019-03-31T09:18:47.694Z,13.00
2019-03-31T09:21:16.194Z,13.00
2019-03-31T09:23:44.606Z,13.10
2019-03-31T09:26:13.025Z,13.10
2019-03-31T09:28:41.450Z,13.10
2019-03-31T09:31:09.862Z,13.00
2019-03-31T09:33:39.597Z,13.00
2019-03-31T09:36:16.119Z,12.90
2019-03-31T09:38:38.327Z,12.80
2019-03-31T09:41:06.743Z,12.70
2019-03-31T09:43:35.170Z,12.70
2019-03-31T09:46:03.589Z,12.80
2019-03-31T09:48:32.119Z,13.00
2019-03-31T09:51:00.526Z,13.00
2019-03-31T09:53:28.948Z,13.10
2019-03-31T09:55:57.449Z,13.30
2019-03-31T09:58:25.862Z,13.40
2019-03-31T10:00:54.350Z,13.50
2019-03-31T10:03:23.091Z,13.50
2019-03-31T10:05:51.513Z,13.50
2019-03-31T10:08:22.016Z,13.40
2019-03-31T10:10:50.149Z,13.30
2019-03-31T10:13:18.567Z,13.30
2019-03-31T10:15:46.994Z,13.30
2019-03-31T10:18:18.186Z,13.30
2019-03-31T10:20:45.542Z,13.20
2019-03-31T10:23:13.974Z,13.10
2019-03-31T10:25:42.393Z,13.10
2019-03-31T10:28:10.844Z,13.20
2019-03-31T10:30:40.214Z,13.30
2019-03-31T10:33:08.805Z,13.50
2019-03-31T10:35:37.292Z,13.70
2019-03-31T10:38:05.862Z,13.70
2019-03-31T10:40:34.262Z,13.80
2019-03-31T10:43:02.681Z,13.90
2019-03-31T10:45:31.165Z,14.00
2019-03-31T10:47:59.622Z,14.20
2019-03-31T10:50:28.174Z,14.40
2019-03-31T10:52:56.681Z,14.50
2019-03-31T10:55:25.082Z,14.70
2019-03-31T10:57:53.502Z,14.70
2019-03-31T11:00:36.267Z,14.70
2019-03-31T11:03:06.440Z,14.70
2019-03-31T11:05:34.930Z,14.80
2019-03-31T11:08:03.416Z,14.80
2019-03-31T11:10:31.912Z,14.80
2019-03-31T11:13:00.319Z,14.90
2019-03-31T11:15:28.748Z,14.80
2019-03-31T11:17:57.166Z,14.80
2019-03-31T11:20:25.591Z,14.70
2019-03-31T11:22:55.661Z,14.70
2019-03-31T11:25:27.635Z,14.70
2019-03-31T11:27:54.202Z,14.60
2019-03-31T11:30:22.703Z,14.50
2019-03-31T11:32:51.111Z,14.50
2019-03-31T11:35:19.532Z,14.50
2019-03-31T11:37:48.100Z,14.60
2019-03-31T11:40:16.566Z,14.70
2019-03-31T11:42:45.150Z,14.70
2019-03-31T11:45:14.110Z,14.80
2019-03-31T11:47:42.586Z,14.80
2019-03-31T11:50:11.546Z,14.70
2019-03-31T11:52:39.991Z,14.70
2019-03-31T11:55:09.343Z,14.80
2019-03-31T11:57:37.754Z,14.90
2019-03-31T12:00:10.422Z,15.00
2019-03-31T12:02:38.833Z,15.20
2019-03-31T12:05:08.574Z,15.30
2019-03-31T12:07:46.737Z,15.50
2019-03-31T12:10:07.669Z,15.80
2019-03-31T12:12:36.157Z,16.10
2019-03-31T12:15:06.437Z,16.30
2019-03-31T12:17:34.876Z,16.50
2019-03-31T12:20:07.595Z,16.80
2019-03-31T12:22:36.309Z,16.90
2019-03-31T12:25:06.874Z,17.10
2019-03-31T12:27:35.289Z,17.20
2019-03-31T12:30:06.803Z,17.30
2019-03-31T12:32:38.355Z,17.30
2019-03-31T12:35:07.957Z,17.40
2019-03-31T12:37:42.794Z,17.50
2019-03-31T12:40:09.245Z,17.60
2019-03-31T12:42:37.691Z,17.90
2019-03-31T12:45:06.483Z,18.20
2019-03-31T12:47:34.971Z,18.40
2019-03-31T12:50:04.613Z,18.40
2019-03-31T12:52:46.190Z,18.40
2019-03-31T12:55:03.325Z,18.20
2019-03-31T12:57:31.736Z,18.00
2019-03-31T13:00:00.367Z,17.90
2019-03-31T13:02:28.978Z,17.80
2019-03-31T13:04:57.406Z,17.80
2019-03-31T13:07:25.820Z,17.80
2019-03-31T13:09:54.250Z,17.90
2019-03-31T13:12:22.953Z,18.30
2019-03-31T13:14:51.429Z,18.60
2019-03-31T13:17:19.839Z,18.80
2019-03-31T13:19:48.247Z,18.90
2019-03-31T13:22:16.683Z,18.90
2019-03-31T13:24:45.120Z,18.80
2019-03-31T13:27:13.551Z,18.60
2019-03-31T13:29:42.337Z,18.50
2019-03-31T13:32:10.836Z,18.70
2019-03-31T13:34:39.242Z,18.90
2019-03-31T13:37:07.675Z,19.00
2019-03-31T13:39:36.097Z,19.30
2019-03-31T13:42:04.506Z,20.20
2019-03-31T13:44:32.940Z,21.80
2019-03-31T13:47:01.364Z,23.10
2019-03-31T13:49:29.788Z,24.80
2019-03-31T13:51:58.200Z,26.10
2019-03-31T13:54:26.651Z,25.40
2019-03-31T13:56:55.652Z,24.90
2019-03-31T13:59:24.670Z,24.10
2019-03-31T14:01:53.157Z,25.50
2019-03-31T14:04:21.586Z,26.60
2019-03-31T14:06:50.079Z,28.50
2019-03-31T14:09:18.499Z,31.10
2019-03-31T14:11:48.550Z,33.60
2019-03-31T14:14:17.131Z,35.50
2019-03-31T14:16:45.584Z,37.00
2019-03-31T14:19:14.059Z,37.60
2019-03-31T14:21:42.492Z,37.60
2019-03-31T14:24:10.902Z,36.80
2019-03-31T14:26:39.327Z,35.60
2019-03-31T14:29:07.746Z,35.10
2019-03-31T14:31:36.176Z,34.90
2019-03-31T14:34:04.582Z,34.80
2019-03-31T14:36:33.011Z,34.80
2019-03-31T14:39:01.530Z,34.40
2019-03-31T14:41:29.955Z,33.20
2019-03-31T14:43:58.400Z,32.20
2019-03-31T14:46:26.810Z,32.50
2019-03-31T14:48:55.245Z,33.20
2019-03-31T14:51:23.665Z,34.30
2019-03-31T14:53:52.095Z,35.30
2019-03-31T14:56:20.527Z,36.00
2019-03-31T14:58:49.047Z,36.30
2019-03-31T15:01:21.012Z,36.60
2019-03-31T15:03:47.627Z,36.90
2019-03-31T15:06:16.230Z,37.20
2019-03-31T15:08:54.133Z,37.20
2019-03-31T15:11:14.812Z,37.00
2019-03-31T15:13:43.250Z,36.80
2019-03-31T15:16:11.660Z,37.00
2019-03-31T15:18:40.084Z,37.30
2019-03-31T15:21:08.504Z,37.50
2019-03-31T15:23:36.940Z,37.50
2019-03-31T15:26:05.345Z,37.80
2019-03-31T15:28:33.764Z,38.10
2019-03-31T15:31:02.199Z,38.20
2019-03-31T15:33:32.153Z,38.40
2019-03-31T15:36:00.570Z,38.20
2019-03-31T15:38:29.054Z,37.80
2019-03-31T15:40:57.483Z,37.90
2019-03-31T15:43:25.903Z,37.70
2019-03-31T15:45:54.325Z,37.80
2019-03-31T15:48:22.748Z,37.50
2019-03-31T15:50:51.165Z,37.30
2019-03-31T15:53:19.600Z,37.30
2019-03-31T15:55:48.016Z,37.20
2019-03-31T15:58:16.444Z,37.00
2019-03-31T16:00:44.866Z,36.90
2019-03-31T16:03:13.295Z,36.80
2019-03-31T16:05:41.714Z,36.50
2019-03-31T16:08:10.126Z,36.30
2019-03-31T16:10:38.551Z,36.10
2019-03-31T16:13:06.966Z,35.80
2019-03-31T16:15:35.471Z,35.70
2019-03-31T16:18:04.299Z,35.50
2019-03-31T16:20:32.739Z,35.50
2019-03-31T16:23:01.173Z,35.40
2019-03-31T16:25:33.876Z,35.30
2019-03-31T16:28:02.307Z,35.10
2019-03-31T16:30:31.453Z,34.70
2019-03-31T16:32:59.896Z,34.30
2019-03-31T16:35:28.295Z,33.50
2019-03-31T16:37:56.835Z,32.80
2019-03-31T16:40:25.254Z,32.10
2019-03-31T16:42:53.685Z,31.30
2019-03-31T16:45:22.099Z,30.80
2019-03-31T16:47:50.529Z,30.50
2019-03-31T16:50:18.946Z,30.20
2019-03-31T16:52:47.358Z,30.30
2019-03-31T16:55:15.883Z,30.30
2019-03-31T16:57:44.291Z,30.30
2019-03-31T17:00:12.955Z,30.20
2019-03-31T17:02:41.363Z,30.00
2019-03-31T17:05:20.955Z,29.90
2019-03-31T17:07:39.993Z,29.70
2019-03-31T17:10:08.834Z,29.40
2019-03-31T17:12:37.260Z,29.10
2019-03-31T17:15:07.111Z,28.80
2019-03-31T17:17:35.536Z,28.30
2019-03-31T17:20:08.609Z,27.70
2019-03-31T17:22:37.027Z,27.20
2019-03-31T17:25:06.027Z,26.90
2019-03-31T17:27:34.444Z,26.40
2019-03-31T17:30:03.131Z,26.00
2019-03-31T17:32:31.544Z,25.20
2019-03-31T17:34:59.971Z,24.10
2019-03-31T17:37:28.397Z,23.10
2019-03-31T17:40:05.919Z,22.20
2019-03-31T17:42:26.953Z,21.30
2019-03-31T17:44:55.366Z,20.60
2019-03-31T17:47:23.798Z,20.00
2019-03-31T17:49:52.203Z,19.40
2019-03-31T17:52:20.635Z,19.00
2019-03-31T17:54:49.064Z,18.70
2019-03-31T17:57:17.462Z,18.40
2019-03-31T17:59:45.897Z,18.00
2019-03-31T18:02:14.321Z,17.70
2019-03-31T18:04:42.730Z,17.50
2019-03-31T18:07:11.135Z,17.30
2019-03-31T18:09:39.579Z,17.10
2019-03-31T18:12:08.168Z,16.90
2019-03-31T18:14:36.575Z,16.80
2019-03-31T18:17:05.169Z,16.60
2019-03-31T18:19:33.595Z,16.40
2019-03-31T18:22:15.603Z,16.20
2019-03-31T18:24:32.177Z,16.10
2019-03-31T18:27:00.602Z,15.90
2019-03-31T18:29:29.011Z,15.80
2019-03-31T18:31:57.456Z,15.70
2019-03-31T18:34:25.910Z,15.50
2019-03-31T18:36:54.306Z,15.30
2019-03-31T18:39:22.728Z,15.20
2019-03-31T18:41:51.170Z,15.00
2019-03-31T18:44:19.614Z,14.90
2019-03-31T18:46:48.019Z,14.70
2019-03-31T18:49:16.502Z,14.60
2019-03-31T18:51:44.949Z,14.50
2019-03-31T18:54:17.689Z,14.40
2019-03-31T18:56:53.198Z,14.40
2019-03-31T18:59:23.251Z,14.30
2019-03-31T19:01:55.952Z,14.20
2019-03-31T19:04:31.888Z,14.00
2019-03-31T19:07:11.117Z,13.90
2019-03-31T19:09:41.159Z,13.80
2019-03-31T19:12:23.206Z,13.70
2019-03-31T19:14:53.354Z,13.60
2019-03-31T19:17:29.134Z,13.50
2019-03-31T19:19:59.244Z,13.40
2019-03-31T19:22:45.902Z,13.30
2019-03-31T19:25:32.426Z,13.20
2019-03-31T19:28:02.550Z,13.10
2019-03-31T19:30:44.578Z,13.00
2019-03-31T19:33:14.659Z,12.80
2019-03-31T19:35:44.784Z,12.80
2019-03-31T19:38:24.128Z,12.70
2019-03-31T19:41:03.894Z,12.60
2019-03-31T19:43:40.728Z,12.50
2019-03-31T19:46:10.782Z,12.40
2019-03-31T19:48:43.894Z,12.40
2019-03-31T19:51:19.488Z,12.30
2019-03-31T19:53:58.388Z,12.20
2019-03-31T19:56:37.516Z,12.20
2019-03-31T19:59:10.740Z,12.00
2019-03-31T20:01:40.785Z,11.90
2019-03-31T20:04:26.728Z,11.80
2019-03-31T20:06:56.944Z,11.70
2019-03-31T20:12:34.131Z,11.50
2019-03-31T20:15:07.321Z,11.40
2019-03-31T20:17:37.494Z,11.30
2019-03-31T20:20:20.863Z,11.20
2019-03-31T20:25:35.243Z,11.10
2019-03-31T20:28:05.294Z,11.00
2019-03-31T20:30:38.452Z,10.90
2019-03-31T20:33:23.478Z,10.90
2019-03-31T20:35:53.546Z,10.80
2019-03-31T20:38:23.602Z,10.70
2019-03-31T20:40:53.674Z,10.60
2019-03-31T20:43:29.551Z,10.60
2019-03-31T20:45:57.977Z,10.50
2019-03-31T20:48:26.402Z,10.40
2019-03-31T20:50:54.811Z,10.30
2019-03-31T20:53:23.246Z,10.20
2019-03-31T20:55:51.674Z,10.20
2019-03-31T20:58:20.090Z,10.10
2019-03-31T21:00:48.518Z,10.00
2019-03-31T21:03:16.926Z,10.00
2019-03-31T21:05:45.346Z,9.90
2019-03-31T21:08:13.766Z,9.80
2019-03-31T21:10:42.182Z,9.80
2019-03-31T21:13:10.607Z,9.70
2019-03-31T21:15:39.100Z,9.70
2019-03-31T21:18:07.530Z,9.60
2019-03-31T21:20:35.939Z,9.60
2019-03-31T21:23:04.334Z,9.50
2019-03-31T21:25:32.760Z,9.40
2019-03-31T21:28:01.171Z,9.40
2019-03-31T21:30:29.575Z,9.30
2019-03-31T21:32:58.053Z,9.30
2019-03-31T21:35:26.453Z,9.20
2019-03-31T21:37:54.880Z,9.20
2019-03-31T21:40:23.369Z,9.10
2019-03-31T21:42:51.789Z,9.00
2019-03-31T21:45:20.194Z,9.00
2019-03-31T21:47:48.616Z,8.90
2019-03-31T21:50:17.018Z,8.90
2019-03-31T21:52:45.439Z,8.80
2019-03-31T21:55:13.849Z,8.80
2019-03-31T21:57:42.334Z,8.70
2019-03-31T22:00:11.781Z,8.60
2019-03-31T22:02:40.252Z,8.60
2019-03-31T22:05:08.934Z,8.50
2019-03-31T22:07:37.334Z,8.50
2019-03-31T22:10:06.821Z,8.40
2019-03-31T22:12:35.229Z,8.40
2019-03-31T22:15:04.902Z,8.30
2019-03-31T22:17:33.306Z,8.30
2019-03-31T22:20:01.725Z,8.20
2019-03-31T22:22:30.128Z,8.20
2019-03-31T22:24:58.548Z,8.10
2019-03-31T22:27:26.971Z,8.10
2019-03-31T22:29:55.383Z,8.00
2019-03-31T22:32:23.802Z,8.00
2019-03-31T22:34:52.209Z,7.90
2019-03-31T22:37:20.623Z,7.90
2019-03-31T22:39:49.030Z,7.90
2019-03-31T22:42:17.458Z,7.80
2019-03-31T22:44:45.866Z,7.80
2019-03-31T22:47:14.372Z,7.70
2019-03-31T22:49:42.798Z,7.60
2019-03-31T22:52:11.197Z,7.60
2019-03-31T22:54:39.622Z,7.50
2019-03-31T22:57:08.022Z,7.40
2019-03-31T22:59:36.453Z,7.40
2019-03-31T23:02:04.914Z,7.30
2019-03-31T23:04:33.414Z,7.30
2019-03-31T23:07:01.832Z,7.30
2019-03-31T23:09:30.244Z,7.20
2019-03-31T23:11:58.657Z,7.20
2019-03-31T23:14:27.058Z,7.10
2019-03-31T23:16:55.485Z,7.10
2019-03-31T23:19:23.894Z,7.00
2019-03-31T23:21:52.313Z,7.00
2019-03-31T23:24:20.714Z,7.00
2019-03-31T23:26:49.143Z,6.90
2019-03-31T23:29:17.544Z,6.90
2019-03-31T23:31:45.972Z,6.80
2019-03-31T23:34:14.370Z,6.80
2019-03-31T23:36:42.789Z,6.70
2019-03-31T23:39:12.128Z,6.70
2019-03-31T23:41:40.516Z,6.70
2019-03-31T23:44:08.943Z,6.60
2019-03-31T23:46:37.362Z,6.60
2019-03-31T23:49:05.802Z,6.60
2019-03-31T23:51:34.210Z,6.50
2019-03-31T23:54:02.614Z,6.50
2019-03-31T23:56:31.098Z,6.50
2019-03-31T23:58:59.501Z,6.40
